KSNY/SNY METAR and TAF weather

Enter ICAO airport designator
Station Type Date Time Source
KSNY METAR 2019/10/23 19:53 UTC NOAA

KSNY 231953Z AUTO 34023G31KT 10SM SCT045 BKN055 09/M03 A3004 RMK AO2 PK WND 34031/1944 SLP170 T00941028


Station Type Date Time Source
KSNY Decoded METAR 2019/10/23 19:53 UTC NOAA

SIDNEY MUNICIPAL AIRPORT, NE, United States (KSNY) 41-06N 102-59W 1307M
Oct 23, 2019 - 03:53 PM EDT / 2019.10.23 1953 UTC
Wind: from the NNW (340 degrees) at 26 MPH (23 KT) gusting to 36 MPH (31 KT):0
Visibility: 10 mile(s):0
Sky conditions: mostly cloudy
Temperature: 48.9 F (9.4 C)
Dew Point: 27.0 F (-2.8 C)
Relative Humidity: 42%
Pressure (altimeter): 30.04 in. Hg (1017 hPa)
ob: KSNY 231953Z AUTO 34023G31KT 10SM SCT045 BKN055 09/M03 A3004 RMK AO2 PK WND 34031/1944 SLP170 T00941028
cycle: 20

Station Type Date Time Source
KSNY TAF 2019/10/23 18:27 UTC NOAA

TAF KSNY 231720Z 2318/2418 33020G28KT P6SM FEW110
FM240100 33009KT P6SM BKN050

Example: see airport list